createdAt,value
2022-10-23T00:00:01.146Z,10.29
2022-10-23T00:01:01.624Z,10.28
2022-10-23T00:02:01.498Z,10.25
2022-10-23T00:03:01.632Z,10.24
2022-10-23T00:04:01.793Z,10.25
2022-10-23T00:05:02.174Z,10.20
2022-10-23T00:06:02.133Z,10.17
2022-10-23T00:07:02.224Z,10.16
2022-10-23T00:08:02.321Z,10.13
2022-10-23T00:09:02.574Z,10.13
2022-10-23T00:10:02.586Z,10.10
2022-10-23T00:11:02.694Z,10.09
2022-10-23T00:12:02.868Z,10.10
2022-10-23T00:13:02.975Z,10.13
2022-10-23T00:14:03.077Z,10.13
2022-10-23T00:15:03.244Z,10.10
2022-10-23T00:16:03.422Z,10.11
2022-10-23T00:17:03.523Z,10.11
2022-10-23T00:18:03.646Z,10.14
2022-10-23T00:19:03.793Z,10.14
2022-10-23T00:20:03.942Z,10.11
2022-10-23T00:21:04.089Z,10.09
2022-10-23T00:22:04.175Z,10.07
2022-10-23T00:23:04.342Z,10.04
2022-10-23T00:24:04.542Z,9.99
2022-10-23T00:25:04.604Z,9.93
2022-10-23T00:26:04.745Z,9.92
2022-10-23T00:27:04.870Z,9.89
2022-10-23T00:28:04.982Z,9.86
2022-10-23T00:29:05.143Z,9.80
2022-10-23T00:30:05.272Z,9.77
2022-10-23T00:31:05.403Z,9.75
2022-10-23T00:32:05.611Z,9.74
2022-10-23T00:33:06.420Z,9.77
2022-10-23T00:34:05.772Z,9.81
2022-10-23T00:35:06.240Z,9.85
2022-10-23T00:36:06.035Z,9.88
2022-10-23T00:37:06.239Z,9.89
2022-10-23T00:38:06.364Z,9.91
2022-10-23T00:39:07.466Z,9.92
2022-10-23T00:40:06.725Z,9.92
2022-10-23T00:41:06.863Z,9.92
2022-10-23T00:42:07.202Z,9.92
2022-10-23T00:43:07.153Z,9.91
2022-10-23T00:44:07.313Z,9.85
2022-10-23T00:45:07.640Z,9.80
2022-10-23T00:46:07.921Z,9.74
2022-10-23T00:47:07.877Z,9.65
2022-10-23T00:48:08.002Z,9.58
2022-10-23T00:49:08.139Z,9.59
2022-10-23T00:50:08.152Z,9.53
2022-10-23T00:51:08.386Z,9.59
2022-10-23T00:52:08.462Z,9.60
2022-10-23T00:53:08.649Z,9.63
2022-10-23T00:54:25.085Z,9.68
2022-10-23T00:55:10.078Z,9.74
2022-10-23T00:56:09.030Z,9.80
2022-10-23T00:57:09.189Z,9.81
2022-10-23T00:58:09.342Z,9.81
2022-10-23T00:59:09.479Z,9.78
2022-10-23T01:00:09.642Z,9.77
2022-10-23T01:01:09.846Z,9.73
2022-10-23T01:02:10.080Z,9.70
2022-10-23T01:03:10.060Z,9.67
2022-10-23T01:04:10.211Z,9.67
2022-10-23T01:05:10.330Z,9.68
2022-10-23T01:06:10.450Z,9.71
2022-10-23T01:07:10.692Z,9.74
2022-10-23T01:08:10.739Z,9.77
2022-10-23T01:09:12.056Z,9.86
2022-10-23T01:10:11.250Z,9.92
2022-10-23T01:11:11.953Z,10.02
2022-10-23T01:12:12.028Z,10.04
2022-10-23T01:13:11.534Z,10.06
2022-10-23T01:14:12.286Z,9.98
2022-10-23T01:15:12.175Z,9.95
2022-10-23T01:16:11.919Z,9.91
2022-10-23T01:17:12.078Z,9.91
2022-10-23T01:18:12.379Z,9.88
2022-10-23T01:19:12.528Z,9.85
2022-10-23T01:20:12.458Z,9.86
2022-10-23T01:21:12.588Z,9.85
2022-10-23T01:22:12.869Z,9.83
2022-10-23T01:23:12.889Z,9.83
2022-10-23T01:24:12.978Z,9.81
2022-10-23T01:25:13.128Z,9.80
2022-10-23T01:26:13.268Z,9.77
2022-10-23T01:27:13.429Z,9.75
2022-10-23T01:28:13.559Z,9.75
2022-10-23T01:29:13.706Z,9.77
2022-10-23T01:30:13.857Z,9.80
2022-10-23T01:31:14.014Z,9.83
2022-10-23T01:32:14.159Z,9.83
2022-10-23T01:33:14.306Z,9.81
2022-10-23T01:34:14.478Z,9.77
2022-10-23T01:35:14.615Z,9.75
2022-10-23T01:36:14.746Z,9.70
2022-10-23T01:37:14.922Z,9.65
2022-10-23T01:38:15.057Z,9.60
2022-10-23T01:39:15.187Z,9.56
2022-10-23T01:40:15.339Z,9.53
2022-10-23T01:41:15.487Z,9.49
2022-10-23T01:42:15.623Z,9.48
2022-10-23T01:43:15.738Z,9.42
2022-10-23T01:44:15.878Z,9.40
2022-10-23T01:45:15.979Z,9.37
2022-10-23T01:46:16.152Z,9.32
2022-10-23T01:47:16.251Z,9.31
2022-10-23T01:48:16.474Z,9.31
2022-10-23T01:49:16.488Z,9.30
2022-10-23T01:50:17.570Z,9.32
2022-10-23T01:51:16.767Z,9.37
2022-10-23T01:52:17.300Z,9.38
2022-10-23T01:53:19.557Z,9.44
2022-10-23T01:54:17.420Z,9.45
2022-10-23T01:55:18.338Z,9.45
2022-10-23T01:56:17.883Z,9.48
2022-10-23T01:57:17.696Z,9.45
2022-10-23T01:58:17.784Z,9.45
2022-10-23T01:59:17.915Z,9.44
2022-10-23T02:00:18.035Z,9.42
2022-10-23T02:01:18.261Z,9.44
2022-10-23T02:02:18.406Z,9.42
2022-10-23T02:03:18.503Z,9.41
2022-10-23T02:04:18.624Z,9.40
2022-10-23T02:05:18.765Z,9.37
2022-10-23T02:06:18.885Z,9.35
2022-10-23T02:07:19.024Z,9.38
2022-10-23T02:08:19.172Z,9.40
2022-10-23T02:09:19.337Z,9.40
2022-10-23T02:10:19.466Z,9.38
2022-10-23T02:11:19.604Z,9.42
2022-10-23T02:12:19.806Z,9.49
2022-10-23T02:13:19.893Z,9.52
2022-10-23T02:14:19.997Z,9.56
2022-10-23T02:15:20.174Z,9.62
2022-10-23T02:16:20.314Z,9.62
2022-10-23T02:17:20.453Z,9.62
2022-10-23T02:18:20.553Z,9.63
2022-10-23T02:19:20.684Z,9.59
2022-10-23T02:20:20.804Z,9.55
2022-10-23T02:21:20.941Z,9.53
2022-10-23T02:22:21.041Z,9.56
2022-10-23T02:23:21.204Z,9.60
2022-10-23T02:24:21.323Z,9.63
2022-10-23T02:25:21.454Z,9.68
2022-10-23T02:26:21.570Z,9.73
2022-10-23T02:27:21.712Z,9.74
2022-10-23T02:28:21.875Z,9.71
2022-10-23T02:29:22.044Z,9.74
2022-10-23T02:30:22.182Z,9.77
2022-10-23T02:31:22.321Z,9.80
2022-10-23T02:32:23.200Z,9.83
2022-10-23T02:33:22.715Z,9.91
2022-10-23T02:34:22.742Z,9.93
2022-10-23T02:35:22.884Z,9.96
2022-10-23T02:36:23.029Z,9.96
2022-10-23T02:37:23.158Z,9.96
2022-10-23T02:38:23.275Z,9.98
2022-10-23T02:39:23.416Z,9.96
2022-10-23T02:40:23.500Z,9.95
2022-10-23T02:41:23.631Z,9.98
2022-10-23T02:42:23.759Z,9.98
2022-10-23T02:43:23.921Z,9.99
2022-10-23T02:44:24.014Z,10.06
2022-10-23T02:45:24.123Z,10.07
2022-10-23T02:46:24.289Z,10.11
2022-10-23T02:47:25.233Z,10.14
2022-10-23T02:48:24.548Z,10.16
2022-10-23T02:49:24.726Z,10.18
2022-10-23T02:50:24.860Z,10.17
2022-10-23T02:51:24.991Z,10.16
2022-10-23T02:52:25.122Z,10.16
2022-10-23T02:53:25.249Z,10.14
2022-10-23T02:54:25.370Z,10.18
2022-10-23T02:55:25.508Z,10.25
2022-10-23T02:56:25.602Z,10.25
2022-10-23T02:57:25.702Z,10.28
2022-10-23T02:58:25.862Z,10.29
2022-10-23T02:59:26.009Z,10.32
2022-10-23T03:00:26.111Z,10.29
2022-10-23T03:01:26.450Z,10.26
2022-10-23T03:02:26.541Z,10.26
2022-10-23T03:03:26.573Z,10.25
2022-10-23T03:04:27.509Z,10.26
2022-10-23T03:05:26.934Z,10.29
2022-10-23T03:06:27.060Z,10.29
2022-10-23T03:07:27.209Z,10.29
2022-10-23T03:08:27.351Z,10.29
2022-10-23T03:09:28.072Z,10.26
2022-10-23T03:10:27.643Z,10.25
2022-10-23T03:11:27.731Z,10.18
2022-10-23T03:12:27.846Z,10.16
2022-10-23T03:13:28.006Z,10.11
2022-10-23T03:14:28.212Z,10.09
2022-10-23T03:15:28.287Z,10.04
2022-10-23T03:16:28.430Z,9.99
2022-10-23T03:17:28.580Z,10.01
2022-10-23T03:18:28.723Z,9.99
2022-10-23T03:19:28.860Z,9.99
2022-10-23T03:20:29.058Z,9.96
2022-10-23T03:21:29.148Z,9.96
2022-10-23T03:22:29.277Z,9.95
2022-10-23T03:23:29.418Z,9.95
2022-10-23T03:24:29.560Z,9.95
2022-10-23T03:25:29.716Z,9.93
2022-10-23T03:26:29.909Z,9.92
2022-10-23T03:27:30.040Z,9.93
2022-10-23T03:28:30.147Z,9.98
2022-10-23T03:29:30.277Z,10.01
2022-10-23T03:30:30.430Z,10.06
2022-10-23T03:31:30.541Z,10.09
2022-10-23T03:32:30.648Z,10.09
2022-10-23T03:33:30.769Z,10.10
2022-10-23T03:34:30.931Z,10.09
2022-10-23T03:35:31.068Z,10.09
2022-10-23T03:36:31.197Z,10.07
2022-10-23T03:37:31.378Z,10.06
2022-10-23T03:38:31.457Z,10.07
2022-10-23T03:39:31.590Z,10.07
2022-10-23T03:40:31.717Z,10.07
2022-10-23T03:41:31.848Z,10.04
2022-10-23T03:42:31.998Z,10.02
2022-10-23T03:43:32.160Z,10.02
2022-10-23T03:44:32.317Z,10.01
2022-10-23T03:45:32.426Z,9.99
2022-10-23T03:46:32.572Z,9.98
2022-10-23T03:47:32.697Z,9.98
2022-10-23T03:48:32.858Z,9.96
2022-10-23T03:49:32.978Z,9.96
2022-10-23T03:50:33.102Z,9.95
2022-10-23T03:51:33.268Z,9.96
2022-10-23T03:52:33.387Z,9.95
2022-10-23T03:53:33.535Z,9.92
2022-10-23T03:54:33.635Z,9.91
2022-10-23T03:55:33.795Z,9.89
2022-10-23T03:56:33.927Z,9.88
2022-10-23T03:57:34.107Z,9.86
2022-10-23T03:58:34.268Z,9.81
2022-10-23T03:59:34.408Z,9.78
2022-10-23T04:00:34.587Z,9.73
2022-10-23T04:01:34.728Z,9.68
2022-10-23T04:02:34.833Z,9.67
2022-10-23T04:03:35.004Z,9.62
2022-10-23T04:04:35.208Z,9.60
2022-10-23T04:05:35.283Z,9.60
2022-10-23T04:06:35.430Z,9.59
2022-10-23T04:07:35.524Z,9.59
2022-10-23T04:08:35.684Z,9.60
2022-10-23T04:09:35.826Z,9.59
2022-10-23T04:10:35.976Z,9.59
2022-10-23T04:11:36.129Z,9.62
2022-10-23T04:12:36.285Z,9.60
2022-10-23T04:13:36.424Z,9.63
2022-10-23T04:14:36.575Z,9.59
2022-10-23T04:15:36.729Z,9.56
2022-10-23T04:16:36.865Z,9.59
2022-10-23T04:17:37.034Z,9.62
2022-10-23T04:18:37.223Z,9.65
2022-10-23T04:19:37.345Z,9.67
2022-10-23T04:20:37.485Z,9.70
2022-10-23T04:21:37.638Z,9.68
2022-10-23T04:22:37.846Z,9.67
2022-10-23T04:23:38.001Z,9.63
2022-10-23T04:24:38.105Z,9.63
2022-10-23T04:25:38.196Z,9.65
2022-10-23T04:26:38.323Z,9.65
2022-10-23T04:27:38.489Z,9.70
2022-10-23T04:28:38.761Z,9.73
2022-10-23T04:29:38.836Z,9.73
2022-10-23T04:30:38.902Z,9.73
2022-10-23T04:31:39.085Z,9.74
2022-10-23T04:32:39.236Z,9.75
2022-10-23T04:33:39.391Z,9.78
2022-10-23T04:34:39.563Z,9.80
2022-10-23T04:35:39.674Z,9.78
2022-10-23T04:36:39.789Z,9.81
2022-10-23T04:37:40.119Z,9.85
2022-10-23T04:38:40.103Z,9.88
2022-10-23T04:39:40.244Z,9.92
2022-10-23T04:40:40.430Z,9.96
2022-10-23T04:41:40.512Z,9.99
2022-10-23T04:42:40.977Z,10.01
2022-10-23T04:43:40.726Z,9.99
2022-10-23T04:44:40.931Z,9.99
2022-10-23T04:45:41.020Z,10.02
2022-10-23T04:46:41.171Z,10.01
2022-10-23T04:47:41.290Z,10.02
2022-10-23T04:48:41.443Z,9.99
2022-10-23T04:49:41.564Z,9.98
2022-10-23T04:50:41.791Z,9.98
2022-10-23T04:51:41.831Z,10.04
2022-10-23T04:52:42.381Z,10.07
2022-10-23T04:53:42.099Z,10.11
2022-10-23T04:54:42.228Z,10.10
2022-10-23T04:55:42.322Z,10.14
2022-10-23T04:56:42.433Z,10.14
2022-10-23T04:57:42.601Z,10.11
2022-10-23T04:58:42.760Z,10.10
2022-10-23T04:59:42.901Z,10.10
2022-10-23T05:00:43.129Z,10.09
2022-10-23T05:01:43.222Z,10.10
2022-10-23T05:02:43.628Z,10.10
2022-10-23T05:03:43.429Z,10.11
2022-10-23T05:04:43.582Z,10.13
2022-10-23T05:05:43.668Z,10.18
2022-10-23T05:06:43.821Z,10.25
2022-10-23T05:07:44.493Z,10.26
2022-10-23T05:08:44.150Z,10.24
2022-10-23T05:09:44.251Z,10.25
2022-10-23T05:10:44.413Z,10.26
2022-10-23T05:11:44.599Z,10.29
2022-10-23T05:12:44.687Z,10.28
2022-10-23T05:13:44.790Z,10.31
2022-10-23T05:14:44.918Z,10.35
2022-10-23T05:15:45.021Z,10.35
2022-10-23T05:16:45.140Z,10.38
2022-10-23T05:17:45.560Z,10.39
2022-10-23T05:18:45.442Z,10.39
2022-10-23T05:19:45.572Z,10.44
2022-10-23T05:20:45.728Z,10.46
2022-10-23T05:21:45.799Z,10.51
2022-10-23T05:22:45.946Z,10.52
2022-10-23T05:23:46.150Z,10.52
2022-10-23T05:24:49.661Z,10.57
2022-10-23T05:25:46.304Z,10.58
2022-10-23T05:26:46.386Z,10.58
2022-10-23T05:27:46.560Z,10.55
2022-10-23T05:28:46.688Z,10.57
2022-10-23T05:29:46.839Z,10.57
2022-10-23T05:30:46.939Z,10.58
2022-10-23T05:31:47.100Z,10.60
2022-10-23T05:32:47.273Z,10.58
2022-10-23T05:33:47.360Z,10.60
2022-10-23T05:34:47.467Z,10.60
2022-10-23T05:35:47.629Z,10.62
2022-10-23T05:36:48.496Z,10.58
2022-10-23T05:37:47.956Z,10.60
2022-10-23T05:38:48.035Z,10.63
2022-10-23T05:39:48.265Z,10.63
2022-10-23T05:40:48.310Z,10.65
2022-10-23T05:41:48.378Z,10.66
2022-10-23T05:42:48.792Z,10.66
2022-10-23T05:43:48.640Z,10.70
2022-10-23T05:44:48.760Z,10.69
2022-10-23T05:45:48.924Z,10.72
2022-10-23T05:46:49.056Z,10.70
2022-10-23T05:47:49.157Z,10.70
2022-10-23T05:48:49.338Z,10.69
2022-10-23T05:49:49.424Z,10.68
2022-10-23T05:50:49.572Z,10.69
2022-10-23T05:51:49.700Z,10.69
2022-10-23T05:52:49.901Z,10.72
2022-10-23T05:53:49.945Z,10.72
2022-10-23T05:54:50.052Z,10.75
2022-10-23T05:55:50.207Z,10.76
2022-10-23T05:56:50.328Z,10.75
2022-10-23T05:57:50.509Z,10.73
2022-10-23T05:58:50.629Z,10.76
2022-10-23T05:59:50.706Z,10.78
2022-10-23T06:00:50.867Z,10.78
2022-10-23T06:01:51.082Z,10.76
2022-10-23T06:02:51.127Z,10.78
2022-10-23T06:03:51.314Z,10.80
2022-10-23T06:04:51.415Z,10.81
2022-10-23T06:05:51.499Z,10.83
2022-10-23T06:06:51.635Z,10.81
2022-10-23T06:07:51.803Z,10.80
2022-10-23T06:08:51.874Z,10.76
2022-10-23T06:09:52.008Z,10.76
2022-10-23T06:10:52.169Z,10.75
2022-10-23T06:11:52.235Z,10.76
2022-10-23T06:12:52.387Z,10.78
2022-10-23T06:13:52.596Z,10.83
2022-10-23T06:14:52.697Z,10.84
2022-10-23T06:15:52.783Z,10.86
2022-10-23T06:16:52.956Z,10.87
2022-10-23T06:17:53.076Z,10.86
2022-10-23T06:18:53.187Z,10.87
2022-10-23T06:19:53.263Z,10.91
2022-10-23T06:20:53.404Z,10.90
2022-10-23T06:21:53.544Z,10.93
2022-10-23T06:22:53.678Z,10.94
2022-10-23T06:23:53.803Z,10.95
2022-10-23T06:24:54.023Z,10.95
2022-10-23T06:25:54.064Z,10.94
2022-10-23T06:26:54.755Z,10.91
2022-10-23T06:27:54.824Z,10.90
2022-10-23T06:28:54.454Z,10.90
2022-10-23T06:29:54.612Z,10.90
2022-10-23T06:30:54.692Z,10.94
2022-10-23T06:31:54.879Z,10.95
2022-10-23T06:32:55.014Z,10.99
2022-10-23T06:33:55.102Z,10.99
2022-10-23T06:34:55.246Z,11.01
2022-10-23T06:35:55.353Z,11.03
2022-10-23T06:36:55.537Z,11.06
2022-10-23T06:37:55.600Z,11.06
2022-10-23T06:38:55.777Z,11.09
2022-10-23T06:39:55.882Z,11.11
2022-10-23T06:40:56.035Z,11.16
2022-10-23T06:41:56.144Z,11.17
2022-10-23T06:42:56.322Z,11.21
2022-10-23T06:43:56.363Z,11.23
2022-10-23T06:44:56.520Z,11.24
2022-10-23T06:45:56.610Z,11.26
2022-10-23T06:46:57.481Z,11.24
2022-10-23T06:47:56.862Z,11.27
2022-10-23T06:48:57.015Z,11.27
2022-10-23T06:49:57.150Z,11.26
2022-10-23T06:50:57.229Z,11.24
2022-10-23T06:51:57.384Z,11.26
2022-10-23T06:52:57.523Z,11.27
2022-10-23T06:53:57.590Z,11.30
2022-10-23T06:54:57.771Z,11.30
2022-10-23T06:55:57.843Z,11.30
2022-10-23T06:56:58.005Z,11.30
2022-10-23T06:57:58.103Z,11.33
2022-10-23T06:58:58.223Z,11.31
2022-10-23T06:59:58.324Z,11.31
2022-10-23T07:00:58.592Z,11.33
2022-10-23T07:01:58.595Z,11.33
2022-10-23T07:02:58.703Z,11.33
2022-10-23T07:03:58.834Z,11.33
2022-10-23T07:04:58.978Z,11.33
2022-10-23T07:05:59.143Z,11.31
2022-10-23T07:06:59.892Z,11.35
2022-10-23T07:08:00.152Z,11.39
2022-10-23T07:08:59.539Z,11.38
2022-10-23T07:09:59.690Z,11.41
2022-10-23T07:10:59.793Z,11.42
2022-10-23T07:11:59.891Z,11.42
2022-10-23T07:13:00.043Z,11.42
2022-10-23T07:14:00.169Z,11.45
2022-10-23T07:15:00.287Z,11.45
2022-10-23T07:16:00.387Z,11.49
2022-10-23T07:17:00.561Z,11.51
2022-10-23T07:18:00.664Z,11.53
2022-10-23T07:19:00.762Z,11.54
2022-10-23T07:20:00.879Z,11.54
2022-10-23T07:21:00.984Z,11.57
2022-10-23T07:22:01.124Z,11.59
2022-10-23T07:23:01.297Z,11.60
2022-10-23T07:24:01.380Z,11.60
2022-10-23T07:25:01.598Z,11.62
2022-10-23T07:26:02.370Z,11.63
2022-10-23T07:27:01.785Z,11.66
2022-10-23T07:28:02.609Z,11.69
2022-10-23T07:29:02.748Z,11.69
2022-10-23T07:30:02.171Z,11.67
2022-10-23T07:31:02.267Z,11.69
2022-10-23T07:32:02.373Z,11.70
2022-10-23T07:33:02.509Z,11.72
2022-10-23T07:34:02.642Z,11.75
2022-10-23T07:35:02.794Z,11.77
2022-10-23T07:36:02.876Z,11.78
2022-10-23T07:37:03.049Z,11.81
2022-10-23T07:38:03.143Z,11.82
2022-10-23T07:39:03.270Z,11.84
2022-10-23T07:40:03.437Z,11.85
2022-10-23T07:41:03.500Z,11.87
2022-10-23T07:42:03.606Z,11.90
2022-10-23T07:43:03.711Z,11.94
2022-10-23T07:44:03.872Z,11.97
2022-10-23T07:45:03.983Z,11.97
2022-10-23T07:46:04.100Z,11.98
2022-10-23T07:47:04.204Z,12.01
2022-10-23T07:48:04.326Z,12.01
2022-10-23T07:49:04.420Z,12.05
2022-10-23T07:50:04.584Z,12.07
2022-10-23T07:51:04.716Z,12.07
2022-10-23T07:52:05.028Z,12.11
2022-10-23T07:53:04.955Z,12.13
2022-10-23T07:54:05.050Z,12.15
2022-10-23T07:55:05.189Z,12.18
2022-10-23T07:56:05.353Z,12.23
2022-10-23T07:57:05.461Z,12.25
2022-10-23T07:58:05.628Z,12.26
2022-10-23T07:59:05.779Z,12.29
2022-10-23T08:00:05.841Z,12.33
2022-10-23T08:01:05.961Z,12.33
2022-10-23T08:02:06.092Z,12.37
2022-10-23T08:03:06.187Z,12.40
2022-10-23T08:04:06.302Z,12.40
2022-10-23T08:05:06.409Z,12.41
2022-10-23T08:06:06.559Z,12.44
2022-10-23T08:07:06.674Z,12.44
2022-10-23T08:08:06.829Z,12.43
2022-10-23T08:09:07.220Z,12.44
2022-10-23T08:10:07.039Z,12.44
2022-10-23T08:11:07.163Z,12.51
2022-10-23T08:12:07.256Z,12.49
2022-10-23T08:13:07.418Z,12.51
2022-10-23T08:14:07.538Z,12.52
2022-10-23T08:15:07.619Z,12.52
2022-10-23T08:16:07.770Z,12.56
2022-10-23T08:17:07.858Z,12.59
2022-10-23T08:18:08.011Z,12.58
2022-10-23T08:19:08.126Z,12.61
2022-10-23T08:20:08.229Z,12.62
2022-10-23T08:21:08.390Z,12.66
2022-10-23T08:22:08.479Z,12.69
2022-10-23T08:23:08.620Z,12.70
2022-10-23T08:24:08.806Z,12.74
2022-10-23T08:25:08.897Z,12.77
2022-10-23T08:26:09.027Z,12.79
2022-10-23T08:27:09.120Z,12.81
2022-10-23T08:28:09.258Z,12.85
2022-10-23T08:29:09.398Z,12.85
2022-10-23T08:30:09.560Z,12.91
2022-10-23T08:31:09.668Z,12.94
2022-10-23T08:32:09.748Z,12.96
2022-10-23T08:33:09.886Z,13.01
2022-10-23T08:34:10.052Z,13.03
2022-10-23T08:35:10.157Z,13.06
2022-10-23T08:36:10.267Z,13.12
2022-10-23T08:37:10.404Z,13.14
2022-10-23T08:38:10.547Z,13.14
2022-10-23T08:39:10.655Z,13.19
2022-10-23T08:40:10.818Z,13.25
2022-10-23T08:41:10.916Z,13.29
2022-10-23T08:43:11.129Z,13.39
2022-10-23T08:44:11.288Z,13.43
2022-10-23T08:45:11.399Z,13.48
2022-10-23T08:46:11.570Z,13.54
2022-10-23T08:47:11.636Z,13.59
2022-10-23T08:48:12.349Z,13.61
2022-10-23T08:49:11.897Z,13.61
2022-10-23T08:50:12.048Z,13.66
2022-10-23T08:51:12.169Z,13.69
2022-10-23T08:52:14.062Z,13.73
2022-10-23T08:53:12.397Z,13.84
2022-10-23T08:54:12.625Z,13.87
2022-10-23T08:55:12.713Z,13.96
2022-10-23T08:56:12.817Z,14.01
2022-10-23T08:57:12.898Z,14.06
2022-10-23T08:58:13.045Z,14.08
2022-10-23T08:59:13.149Z,14.19
2022-10-23T09:00:13.298Z,14.27
2022-10-23T09:01:13.524Z,14.26
2022-10-23T09:02:13.607Z,14.26
2022-10-23T09:03:13.620Z,14.26
2022-10-23T09:04:13.799Z,14.27
2022-10-23T09:05:13.887Z,14.36
2022-10-23T09:06:14.045Z,14.39
2022-10-23T09:07:14.139Z,14.52
2022-10-23T09:08:14.238Z,14.52
2022-10-23T09:09:14.346Z,14.54
2022-10-23T09:10:14.486Z,14.59
2022-10-23T09:11:14.612Z,14.66
2022-10-23T09:12:14.793Z,14.74
2022-10-23T09:13:14.833Z,14.82
2022-10-23T09:14:15.737Z,14.83
2022-10-23T09:15:15.088Z,14.86
2022-10-23T09:16:15.235Z,14.94
2022-10-23T09:18:15.479Z,15.15
2022-10-23T09:19:15.610Z,15.19
2022-10-23T09:20:15.715Z,15.18
2022-10-23T09:21:15.806Z,15.15
2022-10-23T09:22:15.956Z,15.15
2022-10-23T09:23:16.056Z,15.16
2022-10-23T09:24:16.217Z,15.19
2022-10-23T09:25:16.294Z,15.23
2022-10-23T09:26:16.496Z,15.19
2022-10-23T09:27:16.569Z,15.11
2022-10-23T09:28:16.707Z,15.09
2022-10-23T09:29:16.888Z,15.05
2022-10-23T09:30:17.709Z,15.07
2022-10-23T09:31:17.103Z,15.07
2022-10-23T09:32:17.187Z,15.13
2022-10-23T09:33:17.318Z,15.19
2022-10-23T09:34:17.489Z,15.25
2022-10-23T09:35:17.801Z,15.22
2022-10-23T09:36:17.717Z,15.30
2022-10-23T09:37:17.868Z,15.34
2022-10-23T09:38:18.006Z,15.43
2022-10-23T09:39:18.245Z,15.52
2022-10-23T09:40:18.348Z,15.52
2022-10-23T09:41:18.434Z,15.62
2022-10-23T09:42:18.550Z,15.62
2022-10-23T09:43:18.651Z,15.59
2022-10-23T09:44:20.280Z,15.67
2022-10-23T09:45:18.940Z,15.73
2022-10-23T09:46:19.074Z,15.76
2022-10-23T09:47:19.186Z,15.78
2022-10-23T09:48:19.294Z,15.76
2022-10-23T09:49:19.386Z,15.71
2022-10-23T09:50:19.506Z,15.68
2022-10-23T09:51:19.653Z,15.68
2022-10-23T09:52:19.737Z,15.66
2022-10-23T09:53:19.833Z,15.66
2022-10-23T09:54:19.987Z,15.59
2022-10-23T09:55:20.106Z,15.55
2022-10-23T09:56:24.240Z,15.60
2022-10-23T09:57:20.319Z,15.64
2022-10-23T09:58:20.467Z,15.70
2022-10-23T09:59:20.707Z,15.74
2022-10-23T10:00:21.575Z,15.76
2022-10-23T10:01:20.918Z,15.84
2022-10-23T10:02:20.972Z,15.88
2022-10-23T10:03:21.067Z,15.96
2022-10-23T10:04:21.158Z,16.08
2022-10-23T10:05:21.302Z,16.16
2022-10-23T10:06:21.463Z,16.27
2022-10-23T10:07:21.548Z,16.41
2022-10-23T10:08:21.698Z,16.57
2022-10-23T10:09:21.803Z,16.70
2022-10-23T10:10:21.961Z,16.77
2022-10-23T10:11:22.105Z,16.85
2022-10-23T10:12:22.215Z,17.03
2022-10-23T10:13:22.300Z,17.21
2022-10-23T10:14:22.455Z,17.40
2022-10-23T10:15:22.600Z,17.43
2022-10-23T10:16:22.750Z,17.49
2022-10-23T10:17:22.867Z,17.45
2022-10-23T10:18:22.956Z,17.33
2022-10-23T10:19:23.055Z,17.25
2022-10-23T10:20:23.205Z,17.21
2022-10-23T10:21:23.305Z,17.24
2022-10-23T10:22:23.458Z,17.12
2022-10-23T10:23:23.575Z,17.07
2022-10-23T10:24:23.694Z,17.10
2022-10-23T10:25:23.805Z,17.14
2022-10-23T10:26:23.984Z,17.21
2022-10-23T10:27:24.098Z,17.21
2022-10-23T10:28:24.234Z,17.18
2022-10-23T10:29:24.310Z,17.05
2022-10-23T10:30:24.458Z,16.99
2022-10-23T10:31:24.596Z,16.98
2022-10-23T10:32:24.738Z,16.92
2022-10-23T10:33:24.887Z,16.96
2022-10-23T10:34:25.033Z,16.98
2022-10-23T10:35:25.137Z,16.98
2022-10-23T10:37:25.386Z,16.96
2022-10-23T10:38:25.558Z,16.95
2022-10-23T10:39:25.618Z,16.91
2022-10-23T10:40:25.781Z,16.91
2022-10-23T10:41:25.879Z,16.91
2022-10-23T10:42:26.573Z,16.91
2022-10-23T10:43:26.153Z,16.90
2022-10-23T10:44:26.282Z,16.90
2022-10-23T10:45:26.380Z,16.90
2022-10-23T10:46:26.515Z,16.95
2022-10-23T10:47:26.619Z,16.96
2022-10-23T10:48:26.706Z,16.98
2022-10-23T10:49:26.842Z,17.00
2022-10-23T10:50:26.988Z,17.05
2022-10-23T10:51:27.141Z,17.09
2022-10-23T10:52:27.247Z,17.12
2022-10-23T10:53:27.347Z,17.15
2022-10-23T10:54:27.497Z,17.14
2022-10-23T10:55:27.664Z,17.18
2022-10-23T10:56:27.816Z,17.18
2022-10-23T10:57:27.928Z,17.17
2022-10-23T10:58:28.038Z,17.22
2022-10-23T10:59:28.178Z,17.24
2022-10-23T11:00:28.315Z,17.27
2022-10-23T11:01:28.564Z,17.27
2022-10-23T11:02:28.610Z,17.27
2022-10-23T11:03:28.677Z,17.27
2022-10-23T11:04:28.824Z,17.25
2022-10-23T11:05:28.984Z,17.27
2022-10-23T11:06:29.089Z,17.24
2022-10-23T11:07:29.197Z,17.24
2022-10-23T11:08:29.328Z,17.22
2022-10-23T11:09:29.436Z,17.25
2022-10-23T11:10:29.530Z,17.27
2022-10-23T11:11:29.630Z,17.30
2022-10-23T11:12:29.768Z,17.30
2022-10-23T11:13:29.985Z,17.33
2022-10-23T11:14:30.057Z,17.38
2022-10-23T11:15:30.226Z,17.40
2022-10-23T11:16:30.265Z,17.43
2022-10-23T11:17:30.406Z,17.45
2022-10-23T11:18:30.558Z,17.43
2022-10-23T11:19:30.697Z,17.49
2022-10-23T11:20:30.826Z,17.51
2022-10-23T11:21:30.914Z,17.55
2022-10-23T11:22:31.093Z,17.55
2022-10-23T11:23:31.178Z,17.53
2022-10-23T11:24:31.324Z,17.57
2022-10-23T11:25:31.447Z,17.54
2022-10-23T11:26:31.547Z,17.57
2022-10-23T11:27:31.679Z,17.58
2022-10-23T11:28:32.567Z,17.60
2022-10-23T11:29:31.961Z,17.58
2022-10-23T11:30:32.127Z,17.62
2022-10-23T11:31:32.187Z,17.55
2022-10-23T11:33:33.141Z,17.57
2022-10-23T11:34:32.575Z,17.57
2022-10-23T11:35:32.928Z,17.58
2022-10-23T11:36:32.789Z,17.58
2022-10-23T11:37:32.928Z,17.60
2022-10-23T11:38:33.755Z,17.57
2022-10-23T11:39:33.367Z,17.55
2022-10-23T11:40:33.397Z,17.51
2022-10-23T11:41:33.490Z,17.51
2022-10-23T11:42:33.496Z,17.54
2022-10-23T11:43:33.629Z,17.54
2022-10-23T11:44:33.778Z,17.55
2022-10-23T11:45:33.960Z,17.55
2022-10-23T11:46:35.486Z,17.60
2022-10-23T11:47:39.328Z,17.65
2022-10-23T11:48:36.011Z,17.68
2022-10-23T11:49:34.399Z,17.68
2022-10-23T11:50:34.513Z,17.71
2022-10-23T11:51:34.663Z,17.76
2022-10-23T11:52:38.753Z,17.76
2022-10-23T11:53:35.918Z,17.79
2022-10-23T11:54:35.038Z,17.79
2022-10-23T11:55:35.185Z,17.80
2022-10-23T11:56:35.311Z,17.81
2022-10-23T11:57:35.441Z,17.80
2022-10-23T11:58:35.518Z,17.76
2022-10-23T11:59:35.666Z,17.77
2022-10-23T12:00:35.812Z,17.81
2022-10-23T12:01:36.097Z,17.83
2022-10-23T12:02:36.164Z,17.87
2022-10-23T12:03:36.255Z,17.92
2022-10-23T12:04:36.348Z,17.94
2022-10-23T12:05:36.515Z,17.91
2022-10-23T12:06:36.587Z,17.91
2022-10-23T12:07:36.719Z,17.92
2022-10-23T12:08:37.541Z,17.96
2022-10-23T12:09:36.936Z,18.04
2022-10-23T12:10:37.034Z,18.05
2022-10-23T12:11:37.204Z,18.07
2022-10-23T12:12:37.301Z,18.05
2022-10-23T12:13:37.429Z,18.11
2022-10-23T12:14:37.507Z,18.16
2022-10-23T12:15:37.647Z,18.23
2022-10-23T12:16:37.797Z,18.20
2022-10-23T12:17:37.950Z,18.20
2022-10-23T12:18:38.050Z,18.21
2022-10-23T12:19:38.955Z,18.28
2022-10-23T12:20:38.300Z,18.26
2022-10-23T12:21:38.445Z,18.26
2022-10-23T12:22:38.613Z,18.25
2022-10-23T12:23:38.698Z,18.26
2022-10-23T12:24:38.817Z,18.26
2022-10-23T12:25:38.938Z,18.29
2022-10-23T12:26:39.050Z,18.34
2022-10-23T12:27:39.175Z,18.36
2022-10-23T12:28:39.338Z,18.47
2022-10-23T12:29:39.410Z,18.68
2022-10-23T12:30:39.510Z,19.02
2022-10-23T12:31:42.104Z,19.13
2022-10-23T12:32:39.705Z,19.17
2022-10-23T12:33:39.917Z,19.27
2022-10-23T12:34:40.034Z,19.38
2022-10-23T12:35:40.155Z,19.47
2022-10-23T12:36:40.218Z,19.57
2022-10-23T12:37:40.369Z,19.70
2022-10-23T12:38:40.487Z,19.97
2022-10-23T12:39:41.428Z,20.48
2022-10-23T12:40:40.770Z,20.72
2022-10-23T12:41:40.891Z,21.08
2022-10-23T12:42:41.168Z,21.49
2022-10-23T12:43:41.108Z,21.71
2022-10-23T12:44:41.290Z,22.30
2022-10-23T12:45:41.386Z,23.04
2022-10-23T12:46:41.519Z,23.62
2022-10-23T12:47:41.630Z,23.94
2022-10-23T12:48:41.739Z,24.16
2022-10-23T12:49:41.887Z,24.45
2022-10-23T12:50:41.981Z,24.44
2022-10-23T12:51:42.100Z,24.34
2022-10-23T12:52:43.210Z,24.21
2022-10-23T12:53:42.420Z,23.78
2022-10-23T12:54:42.521Z,23.49
2022-10-23T12:55:42.647Z,23.15
2022-10-23T12:56:42.801Z,23.04
2022-10-23T12:57:43.243Z,22.93
2022-10-23T12:58:42.999Z,22.64
2022-10-23T12:59:43.145Z,22.39
2022-10-23T13:00:43.262Z,22.38
2022-10-23T13:01:43.719Z,22.24
2022-10-23T13:02:43.569Z,22.12
2022-10-23T13:03:43.603Z,22.05
2022-10-23T13:04:43.730Z,21.99